createdAt,value
2018-12-30T00:02:21.817Z,5.90
2018-12-30T00:07:23.662Z,5.80
2018-12-30T00:12:25.033Z,5.90
2018-12-30T00:17:26.302Z,5.90
2018-12-30T00:22:28.068Z,5.90
2018-12-30T00:27:29.318Z,5.90
2018-12-30T00:32:30.565Z,6.00
2018-12-30T00:37:31.839Z,5.90
2018-12-30T00:42:33.253Z,5.90
2018-12-30T00:47:34.523Z,5.70
2018-12-30T00:52:35.785Z,5.80
2018-12-30T00:57:37.026Z,5.90
2018-12-30T01:02:38.263Z,5.90
2018-12-30T01:07:39.636Z,6.00
2018-12-30T01:12:40.880Z,6.00
2018-12-30T01:17:42.127Z,6.10
2018-12-30T01:22:43.778Z,6.30
2018-12-30T01:27:45.020Z,6.50
2018-12-30T01:32:46.361Z,6.60
2018-12-30T01:37:47.678Z,6.70
2018-12-30T01:42:48.908Z,6.70
2018-12-30T01:47:50.147Z,6.90
2018-12-30T01:52:51.405Z,7.00
2018-12-30T01:57:52.961Z,7.10
2018-12-30T02:02:54.202Z,7.20
2018-12-30T02:07:55.556Z,7.30
2018-12-30T02:12:56.834Z,7.30
2018-12-30T02:17:58.075Z,7.40
2018-12-30T02:22:59.312Z,7.50
2018-12-30T02:28:00.539Z,7.50
2018-12-30T02:33:01.807Z,7.60
2018-12-30T02:38:03.036Z,7.60
2018-12-30T02:43:04.574Z,7.50
2018-12-30T02:48:05.814Z,7.60
2018-12-30T02:53:07.066Z,7.60
2018-12-30T02:58:08.314Z,7.60
2018-12-30T03:03:09.582Z,7.60
2018-12-30T03:08:10.817Z,7.70
2018-12-30T03:13:12.065Z,7.70
2018-12-30T03:18:13.295Z,7.70
2018-12-30T03:23:14.520Z,7.70
2018-12-30T03:28:15.770Z,7.70
2018-12-30T03:33:17.000Z,7.90
2018-12-30T03:38:18.257Z,7.80
2018-12-30T03:43:19.487Z,7.80
2018-12-30T03:48:20.730Z,7.90
2018-12-30T03:53:21.951Z,7.90
2018-12-30T03:58:23.203Z,7.90
2018-12-30T04:03:24.442Z,8.00
2018-12-30T04:08:25.684Z,8.10
2018-12-30T04:13:26.919Z,8.10
2018-12-30T04:18:28.155Z,8.10
2018-12-30T04:23:29.393Z,8.20
2018-12-30T04:28:30.716Z,8.20
2018-12-30T04:33:32.078Z,8.20
2018-12-30T04:38:33.392Z,8.10
2018-12-30T04:43:34.736Z,8.10
2018-12-30T04:48:35.975Z,8.00
2018-12-30T04:53:37.219Z,8.10
2018-12-30T04:58:38.456Z,8.10
2018-12-30T05:03:39.713Z,8.10
2018-12-30T05:08:40.956Z,8.20
2018-12-30T05:13:42.202Z,8.20
2018-12-30T05:18:43.430Z,8.10
2018-12-30T05:23:44.661Z,7.90
2018-12-30T05:28:45.898Z,7.90
2018-12-30T05:33:47.132Z,8.00
2018-12-30T05:38:48.379Z,8.00
2018-12-30T05:43:49.616Z,8.00
2018-12-30T05:48:50.868Z,8.10
2018-12-30T05:53:52.145Z,8.00
2018-12-30T05:58:53.390Z,7.90
2018-12-30T06:03:54.611Z,8.00
2018-12-30T06:08:55.840Z,7.90
2018-12-30T06:13:57.115Z,7.80
2018-12-30T06:18:58.338Z,7.70
2018-12-30T06:23:59.604Z,7.80
2018-12-30T06:29:00.846Z,7.80
2018-12-30T06:34:02.083Z,7.90
2018-12-30T06:39:04.753Z,8.00
2018-12-30T06:44:06.013Z,8.00
2018-12-30T06:49:07.246Z,8.00
2018-12-30T06:54:08.497Z,7.90
2018-12-30T06:59:09.727Z,7.80
2018-12-30T07:04:10.978Z,7.80
2018-12-30T07:09:12.225Z,7.70
2018-12-30T07:14:13.478Z,7.60
2018-12-30T07:19:14.783Z,7.50
2018-12-30T07:24:16.027Z,7.50
2018-12-30T07:29:17.253Z,7.30
2018-12-30T07:34:18.525Z,7.20
2018-12-30T07:39:19.766Z,7.20
2018-12-30T07:44:21.015Z,7.40
2018-12-30T07:49:22.258Z,7.40
2018-12-30T07:54:23.502Z,7.40
2018-12-30T07:59:24.727Z,7.40
2018-12-30T08:04:25.985Z,7.40
2018-12-30T08:09:27.217Z,7.50
2018-12-30T08:14:28.651Z,7.50
2018-12-30T08:19:29.883Z,7.60
2018-12-30T08:24:31.141Z,7.70
2018-12-30T08:29:32.383Z,7.70
2018-12-30T08:34:33.626Z,7.70
2018-12-30T08:39:34.886Z,7.60
2018-12-30T08:44:36.133Z,7.70
2018-12-30T08:49:37.376Z,7.70
2018-12-30T08:54:38.626Z,7.70
2018-12-30T08:59:39.961Z,7.90
2018-12-30T09:04:41.210Z,8.00
2018-12-30T09:09:42.451Z,8.30
2018-12-30T09:14:43.700Z,8.40
2018-12-30T09:19:44.962Z,8.40
2018-12-30T09:24:46.196Z,8.50
2018-12-30T09:29:47.438Z,8.40
2018-12-30T09:34:48.673Z,8.30
2018-12-30T09:39:49.909Z,8.50
2018-12-30T09:44:51.185Z,8.70
2018-12-30T09:49:52.422Z,9.00
2018-12-30T09:54:53.690Z,9.00
2018-12-30T09:59:54.949Z,8.90
2018-12-30T10:04:56.185Z,8.80
2018-12-30T10:09:57.449Z,8.90
2018-12-30T10:15:01.972Z,9.20
2018-12-30T10:20:03.569Z,9.00
2018-12-30T10:25:04.807Z,8.90
2018-12-30T10:30:08.055Z,8.80
2018-12-30T10:35:09.289Z,8.90
2018-12-30T10:40:10.581Z,8.90
2018-12-30T10:45:11.838Z,8.90
2018-12-30T10:50:13.151Z,8.90
2018-12-30T10:55:14.415Z,9.00
2018-12-30T11:00:16.066Z,8.90
2018-12-30T11:05:17.332Z,9.20
2018-12-30T11:10:18.580Z,9.40
2018-12-30T11:15:19.820Z,9.20
2018-12-30T11:20:21.105Z,9.10
2018-12-30T11:25:22.356Z,9.20
2018-12-30T11:30:23.607Z,9.20
2018-12-30T11:35:24.996Z,9.30
2018-12-30T11:40:26.265Z,9.40
2018-12-30T11:45:27.504Z,9.30
2018-12-30T11:50:28.771Z,9.10
2018-12-30T11:55:30.028Z,9.30
2018-12-30T12:00:31.406Z,9.10
2018-12-30T12:05:32.636Z,8.90
2018-12-30T12:10:33.909Z,8.70
2018-12-30T12:15:35.162Z,8.70
2018-12-30T12:20:36.425Z,8.70
2018-12-30T12:25:37.654Z,8.70
2018-12-30T12:30:38.908Z,8.70
2018-12-30T12:35:40.263Z,8.70
2018-12-30T12:40:41.528Z,8.70
2018-12-30T12:45:42.890Z,8.50
2018-12-30T12:50:44.153Z,8.50
2018-12-30T12:55:45.470Z,8.50
2018-12-30T13:00:46.784Z,8.50
2018-12-30T13:05:48.026Z,8.50
2018-12-30T13:10:49.264Z,8.50
2018-12-30T13:15:50.528Z,8.60
2018-12-30T13:20:51.821Z,8.60
2018-12-30T13:25:53.116Z,8.50
2018-12-30T13:30:54.312Z,8.50
2018-12-30T13:35:55.621Z,8.50
2018-12-30T13:40:56.931Z,8.70
2018-12-30T13:45:58.179Z,8.60
2018-12-30T13:50:59.421Z,8.60
2018-12-30T13:56:00.924Z,8.50
2018-12-30T14:01:02.197Z,8.50
2018-12-30T14:06:03.460Z,8.50
2018-12-30T14:11:04.843Z,8.50
2018-12-30T14:16:06.092Z,8.30
2018-12-30T14:21:07.455Z,8.30
2018-12-30T14:26:09.639Z,8.30
2018-12-30T14:31:12.841Z,8.20
2018-12-30T14:36:14.083Z,8.20
2018-12-30T14:41:15.346Z,8.10
2018-12-30T14:46:16.721Z,8.00
2018-12-30T14:51:17.973Z,8.00
2018-12-30T14:56:19.257Z,8.00
2018-12-30T15:01:20.539Z,7.90
2018-12-30T15:06:21.775Z,7.90
2018-12-30T15:11:23.133Z,7.90
2018-12-30T15:16:24.402Z,7.80
2018-12-30T15:21:25.644Z,7.80
2018-12-30T15:26:26.913Z,7.80
2018-12-30T15:31:28.167Z,7.80
2018-12-30T15:36:29.428Z,7.70
2018-12-30T15:41:30.706Z,7.70
2018-12-30T15:46:31.945Z,7.70
2018-12-30T15:51:33.242Z,7.70
2018-12-30T15:56:34.493Z,7.60
2018-12-30T16:01:35.757Z,7.50
2018-12-30T16:06:36.994Z,7.50
2018-12-30T16:11:38.265Z,7.50
2018-12-30T16:16:39.544Z,7.40
2018-12-30T16:21:40.801Z,7.30
2018-12-30T16:26:42.065Z,7.30
2018-12-30T16:31:43.339Z,7.30
2018-12-30T16:36:44.596Z,7.30
2018-12-30T16:41:45.864Z,7.20
2018-12-30T16:46:47.130Z,7.20
2018-12-30T16:51:48.417Z,7.20
2018-12-30T16:56:49.680Z,7.20
2018-12-30T17:01:50.973Z,7.20
2018-12-30T17:06:52.219Z,7.20
2018-12-30T17:11:53.488Z,7.20
2018-12-30T17:16:54.735Z,7.20
2018-12-30T17:21:55.988Z,7.20
2018-12-30T17:26:58.463Z,7.20
2018-12-30T17:31:59.798Z,7.20
2018-12-30T17:37:01.059Z,7.10
2018-12-30T17:42:02.343Z,7.10
2018-12-30T17:47:03.607Z,7.20
2018-12-30T17:52:04.855Z,7.10
2018-12-30T17:57:06.121Z,7.20
2018-12-30T18:02:07.401Z,7.20
2018-12-30T18:07:08.679Z,7.20
2018-12-30T18:12:09.933Z,7.10
2018-12-30T18:17:11.188Z,7.10
2018-12-30T18:22:12.447Z,7.10
2018-12-30T18:27:13.703Z,7.10
2018-12-30T18:32:15.005Z,7.00
2018-12-30T18:37:16.250Z,7.00
2018-12-30T18:42:17.520Z,7.00
2018-12-30T18:47:18.785Z,6.90
2018-12-30T18:52:20.022Z,6.90
2018-12-30T18:57:21.289Z,6.90
2018-12-30T19:02:22.553Z,6.90
2018-12-30T19:07:23.809Z,6.90
2018-12-30T19:12:25.149Z,6.90
2018-12-30T19:17:26.416Z,6.90
2018-12-30T19:22:27.705Z,6.90
2018-12-30T19:27:28.962Z,6.90
2018-12-30T19:32:30.237Z,6.90
2018-12-30T19:37:31.513Z,6.90
2018-12-30T19:42:32.920Z,7.00
2018-12-30T19:47:34.114Z,7.00
2018-12-30T19:52:35.400Z,6.90
2018-12-30T19:57:37.000Z,6.90
2018-12-30T20:02:38.363Z,6.90
2018-12-30T20:07:39.614Z,6.90
2018-12-30T20:12:40.928Z,6.90
2018-12-30T20:17:42.188Z,6.90
2018-12-30T20:22:43.453Z,6.90
2018-12-30T20:27:44.716Z,7.00
2018-12-30T20:32:45.982Z,7.00
2018-12-30T20:37:47.239Z,6.90
2018-12-30T20:42:48.498Z,6.90
2018-12-30T20:47:49.756Z,6.90
2018-12-30T20:52:51.031Z,6.90
2018-12-30T20:57:52.265Z,6.90
2018-12-30T21:02:53.529Z,6.90
2018-12-30T21:07:54.787Z,6.80
2018-12-30T21:12:56.090Z,6.90
2018-12-30T21:17:57.374Z,6.80
2018-12-30T21:22:58.624Z,6.80
2018-12-30T21:27:59.897Z,6.90
2018-12-30T21:33:01.179Z,6.90
2018-12-30T21:38:02.555Z,6.80
2018-12-30T21:43:03.825Z,6.80
2018-12-30T21:48:05.096Z,6.70
2018-12-30T21:53:06.377Z,6.60
2018-12-30T21:58:07.636Z,6.50
2018-12-30T22:03:08.987Z,6.40
2018-12-30T22:08:10.251Z,6.30
2018-12-30T22:13:11.543Z,6.30
2018-12-30T22:18:12.846Z,6.30
2018-12-30T22:23:14.119Z,6.20
2018-12-30T22:28:15.367Z,6.20
2018-12-30T22:33:16.641Z,6.20
2018-12-30T22:38:17.953Z,6.20
2018-12-30T22:43:19.235Z,6.20
2018-12-30T22:48:20.474Z,6.20
2018-12-30T22:53:21.836Z,6.20
2018-12-30T22:58:23.112Z,6.20
2018-12-30T23:03:24.344Z,6.20
2018-12-30T23:08:25.587Z,6.20
2018-12-30T23:13:26.891Z,6.20
2018-12-30T23:18:28.140Z,6.30
2018-12-30T23:23:29.413Z,6.30
2018-12-30T23:28:30.684Z,6.30
2018-12-30T23:33:31.940Z,6.30
2018-12-30T23:38:33.190Z,6.30
2018-12-30T23:43:34.435Z,6.40
2018-12-30T23:48:35.701Z,6.40
2018-12-30T23:53:36.953Z,6.40
2018-12-30T23:58:38.210Z,6.40
